Time;durP1;ratioP1;P1;durP2;ratioP2;P2;SDS_P1;SDS_P2;PMS_P1;PMS_P2;Temp;Humidity;BMP_temperature;BMP_pressure;BME280_temperature;BME280_humidity;BME280_pressure;Samples;Min_cycle;Max_cycle;Signal;HPM_P1;HPM_P2
2023/08/12 00:01:21;;;;;;;2.10;1.43;;;;;19.90;96407.00;;;;5136778;27;20203;-62
2023/08/12 00:03:48;;;;;;;1.53;1.43;;;;;19.80;96406.00;;;;5136548;27;20672;-61
2023/08/12 00:06:17;;;;;;;0.82;0.82;;;;;19.70;96405.00;;;;5136690;27;20682;-62
2023/08/12 00:08:44;;;;;;;0.93;0.93;;;;;19.60;96405.00;;;;5136445;27;20200;-61
2023/08/12 00:11:12;;;;;;;1.13;0.93;;;;;19.70;96405.00;;;;5136303;27;20693;-61
2023/08/12 00:13:39;;;;;;;0.90;0.90;;;;;19.80;96404.00;;;;5136199;27;20190;-61
2023/08/12 00:16:07;;;;;;;1.60;1.50;;;;;19.80;96400.00;;;;5136119;27;20216;-62
2023/08/12 00:18:36;;;;;;;0.90;0.90;;;;;19.90;96396.00;;;;5136255;27;20193;-62
2023/08/12 00:21:09;;;;;;;1.13;0.93;;;;;19.80;96389.00;;;;5136205;27;20193;-62
2023/08/12 00:23:40;;;;;;;1.63;1.53;;;;;19.60;96389.00;;;;5136695;27;20177;-61
2023/08/12 00:26:08;;;;;;;1.23;1.13;;;;;19.40;96387.00;;;;5136257;27;20250;-61
2023/08/12 00:28:35;;;;;;;1.30;1.20;;;;;19.40;96377.00;;;;5136080;27;20196;-62
2023/08/12 00:31:04;;;;;;;1.80;1.70;;;;;19.40;96378.00;;;;5136517;27;20216;-61
2023/08/12 00:33:31;;;;;;;1.37;1.27;;;;;19.40;96372.00;;;;5135980;27;20240;-61
2023/08/12 00:35:58;;;;;;;2.03;1.43;;;;;19.50;96382.00;;;;5135914;27;20213;-61
2023/08/12 00:38:26;;;;;;;2.53;1.53;;;;;19.40;96375.00;;;;5136235;27;20200;-61
2023/08/12 00:40:55;;;;;;;1.23;1.23;;;;;19.40;96376.00;;;;5135763;27;20544;-61
2023/08/12 00:43:22;;;;;;;2.03;1.80;;;;;19.40;96378.00;;;;5135523;27;20529;-61
2023/08/12 00:45:49;;;;;;;1.58;1.48;;;;;19.50;96385.00;;;;5135123;27;20580;-61
2023/08/12 00:48:19;;;;;;;1.53;1.07;;;;;19.40;96377.00;;;;5135710;27;20193;-61
2023/08/12 00:50:47;;;;;;;1.30;1.23;;;;;19.50;96384.00;;;;5135739;27;20221;-62
2023/08/12 00:53:15;;;;;;;1.07;1.07;;;;;19.50;96372.00;;;;5135456;27;20630;-62
2023/08/12 00:55:43;;;;;;;1.10;1.10;;;;;19.50;96377.00;;;;5135481;27;20197;-61
2023/08/12 00:58:12;;;;;;;0.93;0.93;;;;;19.50;96371.00;;;;5135772;27;20193;-61
2023/08/12 01:00:39;;;;;;;0.90;0.90;;;;;19.50;96373.00;;;;5135435;27;20652;-61
2023/08/12 01:03:07;;;;;;;1.45;1.35;;;;;19.50;96363.00;;;;5135367;27;20194;-61
2023/08/12 01:05:35;;;;;;;1.10;1.10;;;;;19.60;96365.00;;;;5135157;27;20201;-61
2023/08/12 01:08:02;;;;;;;1.93;1.83;;;;;19.60;96350.00;;;;5135476;27;20190;-62
2023/08/12 01:10:37;;;;;;;1.77;1.67;;;;;19.50;96349.00;;;;5135553;27;20195;-61
2023/08/12 01:13:17;;;;;;;1.20;1.15;;;;;19.50;96354.00;;;;5135154;27;20181;-62
2023/08/12 01:15:46;;;;;;;2.17;2.07;;;;;19.20;96352.00;;;;5135406;27;20200;-61
2023/08/12 01:18:14;;;;;;;2.67;2.00;;;;;19.00;96348.00;;;;5133692;27;20189;-61
2023/08/12 01:20:42;;;;;;;1.90;1.77;;;;;18.90;96341.00;;;;5135126;27;20189;-61
2023/08/12 01:23:14;;;;;;;2.50;2.30;;;;;19.00;96345.00;;;;5135096;27;20194;-62
2023/08/12 01:25:42;;;;;;;1.77;1.67;;;;;19.10;96336.00;;;;5135468;27;20170;-61
2023/08/12 01:28:10;;;;;;;1.03;1.03;;;;;19.20;96331.00;;;;5135340;27;20268;-61
2023/08/12 01:30:44;;;;;;;1.00;1.00;;;;;19.20;96347.00;;;;5134747;27;20186;-61
2023/08/12 01:33:22;;;;;;;1.00;1.00;;;;;19.00;96340.00;;;;5135212;27;20173;-61
2023/08/12 01:35:55;;;;;;;1.70;1.40;;;;;19.00;96326.00;;;;5135126;27;20182;-61
2023/08/12 01:38:27;;;;;;;1.60;1.50;;;;;19.00;96326.00;;;;5134705;27;20264;-61
2023/08/12 01:40:55;;;;;;;0.93;0.93;;;;;19.00;96329.00;;;;5135297;27;20209;-61
2023/08/12 01:43:24;;;;;;;0.90;0.90;;;;;18.70;96329.00;;;;5134563;27;20616;-61
2023/08/12 01:45:51;;;;;;;1.13;1.13;;;;;18.80;96340.00;;;;5134613;27;20200;-61
2023/08/12 01:48:20;;;;;;;1.87;1.77;;;;;18.90;96329.00;;;;5134565;27;20193;-61
2023/08/12 01:50:48;;;;;;;1.20;1.20;;;;;19.00;96331.00;;;;5134712;27;20208;-61
2023/08/12 01:53:15;;;;;;;2.03;1.87;;;;;19.00;96328.00;;;;5134547;27;20672;-61
2023/08/12 01:55:45;;;;;;;1.13;1.13;;;;;19.10;96338.00;;;;5134053;27;20196;-60
2023/08/12 01:58:12;;;;;;;1.77;1.67;;;;;19.20;96339.00;;;;5134623;27;20193;-61
2023/08/12 02:00:40;;;;;;;22.20;16.50;;;;;19.30;96334.00;;;;5134453;27;20190;-61
2023/08/12 02:03:07;;;;;;;22.30;14.97;;;;;19.40;96340.00;;;;5134308;27;20186;-60
2023/08/12 02:05:37;;;;;;;2.83;2.63;;;;;19.40;96327.00;;;;5134051;27;20209;-61
2023/08/12 02:08:06;;;;;;;2.00;1.80;;;;;19.40;96328.00;;;;5134404;27;20300;-60
2023/08/12 02:10:33;;;;;;;1.67;1.57;;;;;19.30;96320.00;;;;5134645;28;20194;-61
2023/08/12 02:13:03;;;;;;;1.00;1.00;;;;;19.40;96318.00;;;;5134307;28;20217;-62
2023/08/12 02:15:30;;;;;;;1.83;1.23;;;;;19.40;96323.00;;;;5134552;28;20721;-61
2023/08/12 02:17:58;;;;;;;0.70;0.70;;;;;19.20;96320.00;;;;5134825;28;20189;-62
2023/08/12 02:20:26;;;;;;;12.73;1.00;;;;;19.20;96313.00;;;;5134440;28;20195;-60
2023/08/12 02:22:53;;;;;;;1.87;1.77;;;;;19.10;96313.00;;;;5134089;28;20193;-62
2023/08/12 02:25:21;;;;;;;0.90;0.90;;;;;19.00;96319.00;;;;5134420;28;20190;-62
2023/08/12 02:27:48;;;;;;;1.17;1.17;;;;;19.10;96319.00;;;;5134119;28;20205;-62
2023/08/12 02:30:17;;;;;;;1.10;1.10;;;;;19.10;96315.00;;;;5134020;28;20205;-61
2023/08/12 02:32:46;;;;;;;1.20;1.20;;;;;19.10;96312.00;;;;5134231;28;20217;-61
2023/08/12 02:35:13;;;;;;;1.13;1.10;;;;;18.90;96306.00;;;;5134109;28;20189;-61
2023/08/12 02:37:40;;;;;;;3.50;1.93;;;;;18.90;96304.00;;;;5133886;28;20744;-62
2023/08/12 02:40:10;;;;;;;2.40;1.00;;;;;18.90;96305.00;;;;5134131;28;20226;-62
2023/08/12 02:42:37;;;;;;;1.07;1.07;;;;;18.90;96292.00;;;;5133999;28;20268;-61
2023/08/12 02:45:06;;;;;;;1.53;1.43;;;;;19.00;96296.00;;;;5134241;28;20536;-61
2023/08/12 02:47:34;;;;;;;0.80;0.80;;;;;18.90;96295.00;;;;5133891;28;20213;-61
2023/08/12 02:50:02;;;;;;;0.93;0.93;;;;;18.90;96296.00;;;;5133746;28;20193;-61
2023/08/12 02:52:29;;;;;;;1.27;0.97;;;;;18.90;96298.00;;;;5134404;28;20224;-62
2023/08/12 02:54:57;;;;;;;0.73;0.73;;;;;18.80;96295.00;;;;5133927;28;20602;-61
2023/08/12 02:57:24;;;;;;;1.67;1.57;;;;;18.80;96292.00;;;;5133697;28;20210;-61
2023/08/12 02:59:52;;;;;;;0.80;0.80;;;;;18.80;96290.00;;;;5133735;28;20303;-61
2023/08/12 03:02:19;;;;;;;1.07;1.07;;;;;18.90;96291.00;;;;5134040;28;20186;-61
2023/08/12 03:04:48;;;;;;;0.50;0.50;;;;;18.90;96279.00;;;;5134066;27;20201;-61
2023/08/12 03:07:15;;;;;;;0.83;0.83;;;;;18.80;96271.00;;;;5133908;27;20213;-61
2023/08/12 03:09:42;;;;;;;1.50;1.40;;;;;18.80;96270.00;;;;5137649;27;20189;-61
2023/08/12 03:12:10;;;;;;;0.97;0.97;;;;;18.80;96271.00;;;;5137354;27;20627;-62
2023/08/12 03:14:37;;;;;;;1.50;1.40;;;;;18.70;96264.00;;;;5137315;27;20189;-62
2023/08/12 03:17:05;;;;;;;1.43;1.33;;;;;18.70;96274.00;;;;5137513;27;20216;-61
2023/08/12 03:19:32;;;;;;;1.60;1.50;;;;;18.70;96274.00;;;;5137353;27;20197;-61
2023/08/12 03:22:01;;;;;;;0.77;0.77;;;;;18.70;96269.00;;;;5137258;27;20192;-62
2023/08/12 03:24:28;;;;;;;2.20;2.00;;;;;18.80;96281.00;;;;5137225;27;20200;-62
2023/08/12 03:26:56;;;;;;;0.93;0.93;;;;;18.80;96274.00;;;;5137079;27;20209;-61
2023/08/12 03:29:23;;;;;;;1.43;1.33;;;;;18.80;96269.00;;;;5137461;27;20197;-61
2023/08/12 03:31:49;;;;;;;0.93;0.93;;;;;18.80;96269.00;;;;5136983;27;20211;-62
2023/08/12 03:34:17;;;;;;;1.10;1.10;;;;;18.80;96270.00;;;;5137733;27;20196;-62
2023/08/12 03:36:45;;;;;;;1.70;1.60;;;;;18.80;96274.00;;;;5136992;27;20205;-61
2023/08/12 03:39:14;;;;;;;1.10;1.10;;;;;18.80;96268.00;;;;5137098;27;20684;-62
2023/08/12 03:41:42;;;;;;;1.10;1.10;;;;;18.70;96264.00;;;;5136912;27;20705;-61
2023/08/12 03:44:09;;;;;;;1.50;1.40;;;;;18.70;96267.00;;;;5136917;27;20680;-62
2023/08/12 03:46:36;;;;;;;0.90;0.90;;;;;18.80;96256.00;;;;5136882;27;20224;-61
2023/08/12 03:49:04;;;;;;;0.83;0.83;;;;;18.80;96259.00;;;;5136820;27;20189;-61
2023/08/12 03:51:31;;;;;;;0.90;0.90;;;;;18.70;96261.00;;;;5136687;27;20197;-61
2023/08/12 03:53:59;;;;;;;0.93;0.93;;;;;18.70;96265.00;;;;5137331;27;20644;-61
2023/08/12 03:56:27;;;;;;;2.03;1.50;;;;;18.70;96265.00;;;;5135158;27;20210;-61
2023/08/12 03:58:55;;;;;;;1.90;1.23;;;;;18.70;96273.00;;;;5136492;27;20186;-59
2023/08/12 04:01:22;;;;;;;1.07;1.07;;;;;18.70;96279.00;;;;5137147;27;20245;-60
2023/08/12 04:03:50;;;;;;;0.97;0.97;;;;;18.80;96269.00;;;;5136463;27;20201;-61
2023/08/12 04:06:17;;;;;;;1.17;1.17;;;;;18.80;96263.00;;;;5135324;27;20581;-61
2023/08/12 04:08:45;;;;;;;1.23;1.23;;;;;18.90;96272.00;;;;5136746;27;20521;-61
2023/08/12 04:11:12;;;;;;;1.20;1.03;;;;;18.90;96272.00;;;;5136491;27;20205;-61
2023/08/12 04:13:41;;;;;;;0.70;0.70;;;;;18.90;96258.00;;;;5136359;27;20218;-61
2023/08/12 04:16:08;;;;;;;1.30;1.30;;;;;19.00;96263.00;;;;5136244;27;20254;-61
2023/08/12 04:18:35;;;;;;;1.40;1.40;;;;;18.90;96273.00;;;;5136036;27;20190;-61
2023/08/12 04:21:03;;;;;;;0.60;0.60;;;;;18.90;96277.00;;;;5136349;27;20243;-61
2023/08/12 04:23:30;;;;;;;1.10;1.10;;;;;18.90;96274.00;;;;5136023;27;20660;-62
2023/08/12 04:25:57;;;;;;;1.63;1.57;;;;;18.70;96275.00;;;;5136271;27;20664;-62
2023/08/12 04:28:25;;;;;;;1.37;1.27;;;;;18.70;96273.00;;;;5135798;27;20551;-61
2023/08/12 04:30:54;;;;;;;1.20;1.20;;;;;18.80;96275.00;;;;5136320;27;20546;-61
2023/08/12 04:33:21;;;;;;;1.90;1.60;;;;;18.80;96274.00;;;;5135682;27;20236;-61
2023/08/12 04:35:48;;;;;;;1.13;1.13;;;;;18.80;96267.00;;;;5135693;27;20200;-62
2023/08/12 04:38:16;;;;;;;1.00;1.00;;;;;18.70;96266.00;;;;5135808;27;20200;-61
2023/08/12 04:40:43;;;;;;;1.23;1.13;;;;;18.80;96259.00;;;;5135795;27;20217;-62
2023/08/12 04:43:13;;;;;;;0.73;0.73;;;;;18.90;96266.00;;;;5135832;27;20182;-61
2023/08/12 04:45:40;;;;;;;1.30;1.30;;;;;18.90;96259.00;;;;5135714;27;20192;-61
2023/08/12 04:48:10;;;;;;;1.20;1.17;;;;;18.90;96254.00;;;;5135719;27;20221;-62
2023/08/12 04:50:38;;;;;;;1.53;1.43;;;;;18.90;96250.00;;;;5135790;27;20200;-61
2023/08/12 04:53:06;;;;;;;1.37;1.33;;;;;18.90;96259.00;;;;5135556;27;20217;-61
2023/08/12 04:55:34;;;;;;;0.93;0.93;;;;;18.90;96259.00;;;;5135539;27;20197;-61
2023/08/12 04:58:01;;;;;;;1.00;1.00;;;;;18.90;96246.00;;;;5135480;27;20691;-61
2023/08/12 05:00:29;;;;;;;1.23;1.23;;;;;18.90;96259.00;;;;5135292;27;20208;-61
2023/08/12 05:02:57;;;;;;;1.10;1.10;;;;;18.90;96259.00;;;;5135380;27;20188;-61
2023/08/12 05:05:27;;;;;;;0.87;0.87;;;;;18.40;96262.00;;;;5135268;27;20664;-62
2023/08/12 05:07:54;;;;;;;1.03;1.03;;;;;18.40;96258.00;;;;5135100;27;20233;-62
2023/08/12 05:10:22;;;;;;;1.70;1.60;;;;;18.60;96254.00;;;;5135244;27;20189;-61
2023/08/12 05:12:50;;;;;;;2.43;1.17;;;;;18.70;96252.00;;;;5135521;27;20213;-61
2023/08/12 05:15:17;;;;;;;1.50;1.40;;;;;18.90;96252.00;;;;5135350;27;20240;-61
2023/08/12 05:17:45;;;;;;;0.97;0.97;;;;;19.00;96244.00;;;;5135164;27;20220;-61
2023/08/12 05:20:12;;;;;;;1.00;1.00;;;;;19.00;96248.00;;;;5135630;27;20284;-61
2023/08/12 05:22:41;;;;;;;0.97;0.97;;;;;19.00;96248.00;;;;5135181;27;20208;-60
2023/08/12 05:25:09;;;;;;;1.00;1.00;;;;;19.10;96253.00;;;;5134829;27;20197;-61
2023/08/12 05:27:36;;;;;;;2.10;1.70;;;;;19.10;96246.00;;;;5135251;27;20224;-61
2023/08/12 05:30:04;;;;;;;0.70;0.70;;;;;19.20;96253.00;;;;5134932;27;20196;-61
2023/08/12 05:32:32;;;;;;;1.80;1.70;;;;;19.20;96250.00;;;;5135035;27;20227;-60
2023/08/12 05:34:59;;;;;;;2.87;1.33;;;;;19.20;96259.00;;;;5134680;27;20199;-61
2023/08/12 05:37:27;;;;;;;1.10;1.10;;;;;19.30;96258.00;;;;5135045;27;20216;-60
2023/08/12 05:39:55;;;;;;;0.90;0.90;;;;;19.30;96257.00;;;;5134866;27;20192;-61
2023/08/12 05:42:23;;;;;;;1.73;1.63;;;;;19.40;96248.00;;;;5134688;27;20656;-61
2023/08/12 05:44:50;;;;;;;0.60;0.60;;;;;19.40;96255.00;;;;5134667;27;20653;-62
2023/08/12 05:47:18;;;;;;;3.33;1.47;;;;;19.50;96252.00;;;;5134709;27;20573;-61
2023/08/12 05:49:45;;;;;;;1.43;1.43;;;;;19.60;96252.00;;;;5134667;27;20242;-62
2023/08/12 05:52:12;;;;;;;1.03;1.03;;;;;19.60;96248.00;;;;5134294;27;20190;-61
2023/08/12 05:54:40;;;;;;;1.30;1.20;;;;;19.60;96246.00;;;;5134431;27;20185;-62
2023/08/12 05:57:08;;;;;;;0.97;0.97;;;;;19.80;96254.00;;;;5134792;27;20555;-60
2023/08/12 05:59:36;;;;;;;2.33;1.83;;;;;19.90;96251.00;;;;5134260;27;20636;-61
2023/08/12 06:02:03;;;;;;;1.17;1.17;;;;;19.90;96252.00;;;;5134668;27;20189;-61
2023/08/12 06:04:31;;;;;;;0.93;0.93;;;;;20.10;96241.00;;;;5135188;27;20200;-63
2023/08/12 06:06:58;;;;;;;0.83;0.83;;;;;20.10;96247.00;;;;5134651;27;20213;-61
2023/08/12 06:09:26;;;;;;;1.47;1.37;;;;;20.20;96240.00;;;;5134894;27;20189;-62
2023/08/12 06:11:53;;;;;;;1.47;1.37;;;;;20.30;96245.00;;;;5134283;27;20212;-61
2023/08/12 06:14:22;;;;;;;4.07;1.13;;;;;20.50;96238.00;;;;5134316;28;20209;-62
2023/08/12 06:16:49;;;;;;;1.15;1.15;;;;;20.40;96239.00;;;;5134183;28;20212;-62
2023/08/12 06:19:17;;;;;;;0.70;0.70;;;;;20.60;96246.00;;;;5134084;28;20196;-61
2023/08/12 06:21:44;;;;;;;0.88;0.88;;;;;20.70;96248.00;;;;5134104;28;20646;-61
2023/08/12 06:24:11;;;;;;;1.10;1.10;;;;;20.90;96255.00;;;;5134186;28;20188;-61
2023/08/12 06:26:39;;;;;;;1.45;1.35;;;;;20.90;96247.00;;;;5132761;28;20224;-61
2023/08/12 06:29:06;;;;;;;1.70;1.60;;;;;21.00;96236.00;;;;5134113;28;20189;-62
2023/08/12 06:31:35;;;;;;;1.17;1.08;;;;;21.10;96248.00;;;;5134080;28;20523;-61
2023/08/12 06:34:02;;;;;;;1.42;1.38;;;;;21.20;96246.00;;;;5133997;28;20213;-62
2023/08/12 06:36:30;;;;;;;1.92;1.38;;;;;21.20;96253.00;;;;5134563;28;20684;-62
2023/08/12 06:38:57;;;;;;;2.38;2.15;;;;;21.20;96240.00;;;;5132515;28;20196;-61
2023/08/12 06:41:25;;;;;;;1.05;1.05;;;;;21.30;96248.00;;;;5134723;27;20200;-61
2023/08/12 06:43:52;;;;;;;1.48;1.27;;;;;21.40;96242.00;;;;5137917;27;20181;-62
2023/08/12 06:46:19;;;;;;;0.85;0.85;;;;;21.50;96239.00;;;;5137799;27;20213;-62
2023/08/12 06:48:48;;;;;;;1.25;1.25;;;;;21.60;96233.00;;;;5137940;27;20190;-60
2023/08/12 06:51:18;;;;;;;5.50;2.00;;;;;21.70;96243.00;;;;5137967;27;20174;-61
2023/08/12 06:53:45;;;;;;;1.58;1.48;;;;;21.70;96237.00;;;;5137787;27;20217;-61
2023/08/12 06:56:13;;;;;;;6.70;1.10;;;;;21.60;96227.00;;;;5137701;27;20217;-61
2023/08/12 06:58:40;;;;;;;1.50;1.40;;;;;21.80;96240.00;;;;5137726;27;20200;-61
2023/08/12 07:01:07;;;;;;;2.22;0.93;;;;;22.00;96242.00;;;;5137709;27;20189;-61
2023/08/12 07:03:35;;;;;;;2.78;2.50;;;;;21.90;96237.00;;;;5136101;27;20201;-61
2023/08/12 07:06:04;;;;;;;0.93;0.93;;;;;22.10;96243.00;;;;5136202;27;20209;-62
2023/08/12 07:08:32;;;;;;;1.48;1.30;;;;;22.20;96249.00;;;;5137517;27;20193;-61
2023/08/12 07:10:59;;;;;;;0.85;0.85;;;;;22.30;96244.00;;;;5137297;27;20201;-61
2023/08/12 07:13:26;;;;;;;1.35;1.25;;;;;22.40;96237.00;;;;5137364;27;20217;-63
2023/08/12 07:15:54;;;;;;;1.10;1.10;;;;;22.50;96238.00;;;;5137261;27;20213;-60
2023/08/12 07:18:22;;;;;;;1.25;1.25;;;;;22.70;96238.00;;;;5137686;27;20189;-60
2023/08/12 07:20:50;;;;;;;4.05;2.00;;;;;22.90;96229.00;;;;5137407;27;20276;-62
2023/08/12 07:23:19;;;;;;;1.20;1.13;;;;;23.10;96218.00;;;;5137158;27;20185;-62
2023/08/12 07:25:47;;;;;;;0.80;0.80;;;;;23.40;96220.00;;;;5137278;27;20186;-62
2023/08/12 07:28:14;;;;;;;0.93;0.93;;;;;23.60;96220.00;;;;5137052;27;20193;-62
2023/08/12 07:30:42;;;;;;;1.10;1.08;;;;;23.90;96223.00;;;;5136969;27;20189;-61
2023/08/12 07:33:09;;;;;;;3.65;1.50;;;;;24.00;96219.00;;;;5136698;27;20604;-61
2023/08/12 07:35:37;;;;;;;1.23;1.20;;;;;24.20;96211.00;;;;5136868;27;20189;-62
2023/08/12 07:38:05;;;;;;;2.08;1.88;;;;;24.40;96206.00;;;;5137588;27;20510;-63
2023/08/12 07:40:33;;;;;;;1.02;1.02;;;;;24.70;96216.00;;;;5136929;27;20194;-62
2023/08/12 07:43:01;;;;;;;1.05;1.05;;;;;24.60;96219.00;;;;5135460;27;20197;-62
2023/08/12 07:45:28;;;;;;;1.08;1.08;;;;;24.50;96218.00;;;;5136601;27;20660;-62
2023/08/12 07:47:55;;;;;;;1.75;1.52;;;;;24.70;96222.00;;;;5136260;27;20600;-62
2023/08/12 07:50:23;;;;;;;0.88;0.88;;;;;24.70;96229.00;;;;5136459;27;20185;-62
2023/08/12 07:52:51;;;;;;;2.40;1.75;;;;;24.90;96227.00;;;;5135978;27;20193;-62
2023/08/12 07:55:19;;;;;;;1.08;1.08;;;;;25.00;96228.00;;;;5135978;27;20583;-61
2023/08/12 07:57:48;;;;;;;1.38;1.35;;;;;25.20;96235.00;;;;5134863;27;20217;-61
2023/08/12 08:00:14;;;;;;;1.63;1.52;;;;;25.10;96230.00;;;;5136408;27;20185;-61
2023/08/12 08:02:42;;;;;;;1.73;1.63;;;;;25.10;96219.00;;;;5136694;27;20277;-62
2023/08/12 08:05:09;;;;;;;2.05;1.90;;;;;25.20;96233.00;;;;5136040;27;20197;-62
2023/08/12 08:07:37;;;;;;;1.20;1.20;;;;;25.10;96222.00;;;;5135912;27;20216;-61
2023/08/12 08:10:05;;;;;;;1.00;1.00;;;;;25.40;96219.00;;;;5136109;27;20255;-62
2023/08/12 08:12:32;;;;;;;1.58;1.48;;;;;25.60;96227.00;;;;5136163;27;20193;-61
2023/08/12 08:15:03;;;;;;;1.20;1.15;;;;;25.60;96219.00;;;;5135339;27;20248;-62
2023/08/12 08:17:30;;;;;;;1.00;1.00;;;;;25.70;96215.00;;;;5136099;27;20225;-62
2023/08/12 08:19:57;;;;;;;1.58;1.48;;;;;25.80;96207.00;;;;5136181;27;20190;-62
2023/08/12 08:22:25;;;;;;;1.17;1.15;;;;;25.90;96221.00;;;;5134555;27;20644;-62
2023/08/12 08:24:52;;;;;;;1.77;1.63;;;;;25.90;96214.00;;;;5135892;27;20542;-62
2023/08/12 08:27:20;;;;;;;0.90;0.90;;;;;26.00;96217.00;;;;5135733;27;20376;-61
2023/08/12 08:29:47;;;;;;;0.85;0.85;;;;;26.30;96219.00;;;;5135808;27;20239;-61
2023/08/12 08:32:16;;;;;;;1.08;0.90;;;;;26.30;96215.00;;;;5135439;27;20296;-62
2023/08/12 08:34:44;;;;;;;0.85;0.85;;;;;26.30;96223.00;;;;5135844;27;20602;-61
2023/08/12 08:37:11;;;;;;;1.25;1.25;;;;;26.30;96212.00;;;;5135451;27;20221;-61
2023/08/12 08:39:38;;;;;;;0.85;0.85;;;;;26.40;96215.00;;;;5135569;27;20228;-62
2023/08/12 08:42:07;;;;;;;0.70;0.70;;;;;26.60;96212.00;;;;5135580;27;20196;-61
2023/08/12 08:44:35;;;;;;;1.30;1.25;;;;;26.90;96218.00;;;;5135515;27;20193;-61
2023/08/12 08:47:04;;;;;;;1.08;1.08;;;;;26.90;96221.00;;;;5135299;27;20212;-61
2023/08/12 08:49:33;;;;;;;1.05;1.05;;;;;26.40;96229.00;;;;5135254;27;20193;-62
2023/08/12 08:52:01;;;;;;;0.90;0.90;;;;;26.30;96217.00;;;;5135105;27;20691;-62
2023/08/12 08:54:29;;;;;;;0.98;0.98;;;;;26.70;96218.00;;;;5135451;27;20209;-62
2023/08/12 08:56:56;;;;;;;0.80;0.80;;;;;26.80;96228.00;;;;5135041;27;20707;-62
2023/08/12 08:59:24;;;;;;;1.30;1.30;;;;;26.80;96227.00;;;;5135375;27;20189;-62
2023/08/12 09:01:52;;;;;;;4.28;2.33;;;;;26.90;96234.00;;;;5133800;27;20284;-61
2023/08/12 09:04:22;;;;;;;0.60;0.60;;;;;26.60;96233.00;;;;5134894;27;20193;-63
2023/08/12 09:06:53;;;;;;;0.80;0.80;;;;;26.80;96235.00;;;;5134493;27;20212;-62
2023/08/12 09:09:23;;;;;;;0.77;0.77;;;;;27.00;96231.00;;;;5135060;27;20216;-62
2023/08/12 09:11:53;;;;;;;1.73;1.33;;;;;26.60;96232.00;;;;5133457;27;20197;-62
2023/08/12 09:14:20;;;;;;;1.00;1.00;;;;;26.50;96249.00;;;;5135264;27;20541;-61
2023/08/12 09:16:48;;;;;;;0.88;0.88;;;;;26.60;96242.00;;;;5133717;27;20221;-61
2023/08/12 09:19:16;;;;;;;1.25;1.25;;;;;26.80;96243.00;;;;5135126;27;20189;-61
2023/08/12 09:21:44;;;;;;;0.93;0.93;;;;;26.50;96232.00;;;;5135110;27;20189;-62
2023/08/12 09:24:14;;;;;;;0.85;0.85;;;;;26.60;96213.00;;;;5134553;27;20193;-62
2023/08/12 09:26:44;;;;;;;1.60;1.50;;;;;26.60;96213.00;;;;5135172;27;20213;-61
2023/08/12 09:29:12;;;;;;;0.55;0.55;;;;;26.70;96219.00;;;;5136279;27;20189;-61
2023/08/12 09:31:39;;;;;;;3.00;1.75;;;;;26.70;96215.00;;;;5135709;27;20193;-60
2023/08/12 09:34:07;;;;;;;2.60;1.08;;;;;26.90;96217.00;;;;5134709;27;20224;-61
2023/08/12 09:36:35;;;;;;;1.00;1.00;;;;;27.10;96220.00;;;;5134330;27;20220;-61
2023/08/12 09:39:08;;;;;;;0.60;0.60;;;;;26.90;96227.00;;;;5134356;27;20682;-60
2023/08/12 09:41:38;;;;;;;1.02;1.02;;;;;27.10;96247.00;;;;5134613;27;20181;-59
2023/08/12 09:44:06;;;;;;;1.00;1.00;;;;;27.00;96239.00;;;;5134432;27;20271;-60
2023/08/12 09:46:34;;;;;;;0.85;0.85;;;;;26.80;96246.00;;;;5134709;27;20229;-62
2023/08/12 09:49:04;;;;;;;0.82;0.82;;;;;27.00;96241.00;;;;5134485;27;20189;-61
2023/08/12 09:51:36;;;;;;;3.55;1.63;;;;;27.20;96231.00;;;;5134863;27;20186;-61
2023/08/12 09:54:05;;;;;;;1.13;1.00;;;;;27.30;96220.00;;;;5134436;27;20262;-60
2023/08/12 09:56:37;;;;;;;0.50;0.50;;;;;27.20;96234.00;;;;5134240;27;20220;-62
2023/08/12 09:59:08;;;;;;;0.80;0.80;;;;;26.80;96220.00;;;;5134429;27;20620;-60
2023/08/12 10:01:35;;;;;;;0.75;0.75;;;;;26.90;96217.00;;;;5134446;27;20174;-61
2023/08/12 10:04:06;;;;;;;0.73;0.73;;;;;26.70;96209.00;;;;5133901;27;20655;-59
2023/08/12 10:06:34;;;;;;;0.80;0.80;;;;;27.00;96210.00;;;;5134228;27;20667;-61
2023/08/12 10:09:03;;;;;;;1.50;1.40;;;;;27.10;96203.00;;;;5134510;27;20197;-61
2023/08/12 10:11:30;;;;;;;0.60;0.60;;;;;27.40;96196.00;;;;5133968;27;20610;-59
2023/08/12 10:13:59;;;;;;;1.17;0.93;;;;;27.70;96201.00;;;;5134240;28;20220;-61
2023/08/12 10:16:30;;;;;;;0.60;0.60;;;;;27.70;96196.00;;;;5133822;27;20217;-61
2023/08/12 10:18:58;;;;;;;0.80;0.80;;;;;28.00;96200.00;;;;5133968;28;20192;-61
2023/08/12 10:21:26;;;;;;;1.65;1.02;;;;;28.10;96195.00;;;;5134091;28;20652;-61
2023/08/12 10:23:57;;;;;;;0.80;0.80;;;;;27.90;96197.00;;;;5133962;28;20189;-60
2023/08/12 10:26:25;;;;;;;0.70;0.70;;;;;28.20;96188.00;;;;5133852;28;20209;-61
2023/08/12 10:28:52;;;;;;;3.30;1.23;;;;;28.30;96195.00;;;;5133880;28;20645;-61
2023/08/12 10:31:22;;;;;;;0.90;0.90;;;;;28.70;96202.00;;;;5133957;28;20196;-61
2023/08/12 10:33:50;;;;;;;1.48;1.38;;;;;28.90;96193.00;;;;5133997;28;20217;-61
2023/08/12 10:36:18;;;;;;;0.90;0.90;;;;;28.80;96207.00;;;;5133785;28;20220;-60
2023/08/12 10:38:46;;;;;;;1.20;1.13;;;;;28.10;96219.00;;;;5133842;28;20200;-60
2023/08/12 10:41:18;;;;;;;2.00;1.80;;;;;27.90;96206.00;;;;5133645;28;20189;-60
2023/08/12 10:43:56;;;;;;;0.95;0.95;;;;;28.40;96211.00;;;;5133649;28;20207;-61
2023/08/12 10:46:29;;;;;;;1.45;0.70;;;;;28.40;96202.00;;;;5133588;28;20745;-61
2023/08/12 10:49:04;;;;;;;1.40;0.80;;;;;28.00;96222.00;;;;5133997;28;20190;-60
2023/08/12 10:51:42;;;;;;;1.27;1.17;;;;;27.80;96218.00;;;;5133985;28;20177;-61
2023/08/12 10:54:16;;;;;;;0.93;0.93;;;;;27.80;96213.00;;;;5133827;28;20676;-61
2023/08/12 10:57:12;;;;;;;0.70;0.70;;;;;27.40;96234.00;;;;5133798;28;20620;-61
2023/08/12 10:59:54;;;;;;;0.75;0.75;;;;;27.30;96228.00;;;;5133668;28;20173;-60
2023/08/12 11:02:27;;;;;;;1.88;1.33;;;;;27.50;96227.00;;;;5134071;28;20627;-60
2023/08/12 11:04:56;;;;;;;0.90;0.90;;;;;27.60;96222.00;;;;5133336;28;20193;-60
2023/08/12 11:07:39;;;;;;;0.70;0.70;;;;;27.40;96219.00;;;;5133564;28;20620;-61
2023/08/12 11:10:12;;;;;;;0.88;0.88;;;;;27.80;96220.00;;;;5133916;28;20368;-62
2023/08/12 11:12:41;;;;;;;1.08;1.08;;;;;27.80;96220.00;;;;5133819;28;20202;-61
2023/08/12 11:15:10;;;;;;;0.93;0.93;;;;;28.00;96227.00;;;;5133510;28;20206;-62
2023/08/12 11:17:43;;;;;;;0.75;0.75;;;;;27.80;96215.00;;;;5132071;28;20217;-61
2023/08/12 11:20:12;;;;;;;2.55;1.20;;;;;27.90;96202.00;;;;5133560;28;20188;-62
2023/08/12 11:22:41;;;;;;;0.82;0.82;;;;;28.30;96176.00;;;;5133486;28;20194;-62
2023/08/12 11:25:10;;;;;;;1.23;1.13;;;;;28.80;96172.00;;;;5133504;28;20197;-62
2023/08/12 11:27:45;;;;;;;0.73;0.73;;;;;29.40;96182.00;;;;5132099;27;20224;-61
2023/08/12 11:30:15;;;;;;;0.80;0.80;;;;;28.70;96179.00;;;;5136506;27;20197;-61
2023/08/12 11:32:45;;;;;;;0.80;0.80;;;;;28.50;96184.00;;;;5136924;27;20242;-63
2023/08/12 11:35:13;;;;;;;0.80;0.80;;;;;28.20;96204.00;;;;5136803;27;20223;-62
2023/08/12 11:37:42;;;;;;;0.80;0.80;;;;;28.20;96194.00;;;;5136940;27;20208;-62
2023/08/12 11:40:11;;;;;;;1.00;1.00;;;;;27.90;96191.00;;;;5136937;27;20185;-61
2023/08/12 11:42:40;;;;;;;0.80;0.80;;;;;27.70;96193.00;;;;5137241;27;20189;-62
2023/08/12 11:45:08;;;;;;;1.23;1.02;;;;;27.60;96204.00;;;;5136543;27;20190;-61
2023/08/12 11:47:36;;;;;;;0.90;0.90;;;;;27.40;96228.00;;;;5136587;27;20296;-62
2023/08/12 11:50:08;;;;;;;0.73;0.73;;;;;26.90;96252.00;;;;5137205;27;20212;-62
2023/08/12 11:52:36;;;;;;;0.70;0.70;;;;;24.50;96284.00;;;;5137218;27;20181;-61
2023/08/12 11:55:04;;;;;;;3.20;1.15;;;;;22.40;96306.00;;;;5136555;27;20213;-61
2023/08/12 11:57:34;;;;;;;1.48;1.00;;;;;21.90;96328.00;;;;5136427;27;20635;-61
2023/08/12 12:00:04;;;;;;;0.90;0.90;;;;;22.10;96295.00;;;;5136461;27;20189;-61
2023/08/12 12:02:31;;;;;;;1.17;0.80;;;;;22.30;96301.00;;;;5136439;27;20254;-61
2023/08/12 12:04:59;;;;;;;0.57;0.57;;;;;22.10;96297.00;;;;5136252;27;20298;-61
2023/08/12 12:07:30;;;;;;;0.70;0.70;;;;;22.10;96295.00;;;;5136094;27;20214;-62
2023/08/12 12:09:57;;;;;;;0.77;0.77;;;;;22.30;96276.00;;;;5136196;27;20192;-61
2023/08/12 12:12:25;;;;;;;0.50;0.50;;;;;22.20;96288.00;;;;5136453;27;20194;-62
2023/08/12 12:14:54;;;;;;;1.15;1.00;;;;;21.90;96288.00;;;;5136342;27;20240;-61
2023/08/12 12:17:22;;;;;;;0.70;0.70;;;;;22.00;96288.00;;;;5136088;27;20210;-61
2023/08/12 12:19:55;;;;;;;0.70;0.70;;;;;22.00;96276.00;;;;5136538;27;20190;-61
2023/08/12 12:22:29;;;;;;;1.25;1.15;;;;;22.00;96278.00;;;;5136408;27;20277;-61
2023/08/12 12:25:06;;;;;;;0.70;0.70;;;;;21.90;96271.00;;;;5136191;27;20186;-61